sensor_id;sensor_type;location;lat;lon;timestamp;P1;durP1;ratioP1;P2;durP2;ratioP2
1601;SDS011;794;48.592;9.634;2023-03-01T00:01:12;18.57;;;11.80;;
1601;SDS011;794;48.592;9.634;2023-03-01T00:03:42;16.20;;;11.33;;
1601;SDS011;794;48.592;9.634;2023-03-01T00:06:09;17.97;;;13.50;;
1601;SDS011;794;48.592;9.634;2023-03-01T00:08:36;15.07;;;11.20;;
1601;SDS011;794;48.592;9.634;2023-03-01T00:11:04;19.83;;;12.67;;
1601;SDS011;794;48.592;9.634;2023-03-01T00:13:33;20.20;;;12.43;;
1601;SDS011;794;48.592;9.634;2023-03-01T00:16:01;23.13;;;13.17;;
1601;SDS011;794;48.592;9.634;2023-03-01T00:18:29;17.13;;;12.70;;
1601;SDS011;794;48.592;9.634;2023-03-01T00:20:57;21.90;;;13.17;;
1601;SDS011;794;48.592;9.634;2023-03-01T00:23:25;18.47;;;13.40;;
1601;SDS011;794;48.592;9.634;2023-03-01T00:25:52;21.87;;;12.00;;
1601;SDS011;794;48.592;9.634;2023-03-01T00:28:20;15.27;;;12.20;;
1601;SDS011;794;48.592;9.634;2023-03-01T00:30:47;24.83;;;13.17;;
1601;SDS011;794;48.592;9.634;2023-03-01T00:33:14;21.33;;;12.90;;
1601;SDS011;794;48.592;9.634;2023-03-01T00:35:41;18.13;;;11.50;;
1601;SDS011;794;48.592;9.634;2023-03-01T00:38:10;17.67;;;12.27;;
1601;SDS011;794;48.592;9.634;2023-03-01T00:40:37;18.70;;;12.50;;
1601;SDS011;794;48.592;9.634;2023-03-01T00:43:04;19.40;;;12.27;;
1601;SDS011;794;48.592;9.634;2023-03-01T00:45:32;21.27;;;13.90;;
1601;SDS011;794;48.592;9.634;2023-03-01T00:47:59;19.87;;;11.90;;
1601;SDS011;794;48.592;9.634;2023-03-01T00:50:26;20.67;;;14.03;;
1601;SDS011;794;48.592;9.634;2023-03-01T00:52:53;23.70;;;14.60;;
1601;SDS011;794;48.592;9.634;2023-03-01T00:55:22;22.00;;;15.07;;
1601;SDS011;794;48.592;9.634;2023-03-01T00:57:50;20.53;;;13.10;;
1601;SDS011;794;48.592;9.634;2023-03-01T01:00:17;26.67;;;15.60;;
1601;SDS011;794;48.592;9.634;2023-03-01T01:02:45;20.87;;;14.10;;
1601;SDS011;794;48.592;9.634;2023-03-01T01:05:12;20.20;;;13.83;;
1601;SDS011;794;48.592;9.634;2023-03-01T01:07:39;20.20;;;12.80;;
1601;SDS011;794;48.592;9.634;2023-03-01T01:10:07;19.43;;;13.00;;
1601;SDS011;794;48.592;9.634;2023-03-01T01:12:39;18.53;;;13.83;;
1601;SDS011;794;48.592;9.634;2023-03-01T01:15:06;20.50;;;13.27;;
1601;SDS011;794;48.592;9.634;2023-03-01T01:17:34;21.73;;;14.47;;
1601;SDS011;794;48.592;9.634;2023-03-01T01:20:01;18.87;;;13.83;;
1601;SDS011;794;48.592;9.634;2023-03-01T01:22:28;21.17;;;13.77;;
1601;SDS011;794;48.592;9.634;2023-03-01T01:24:55;19.63;;;13.13;;
1601;SDS011;794;48.592;9.634;2023-03-01T01:27:22;24.03;;;15.37;;
1601;SDS011;794;48.592;9.634;2023-03-01T01:29:50;16.80;;;12.60;;
1601;SDS011;794;48.592;9.634;2023-03-01T01:32:19;21.70;;;14.83;;
1601;SDS011;794;48.592;9.634;2023-03-01T01:34:46;24.33;;;14.67;;
1601;SDS011;794;48.592;9.634;2023-03-01T01:37:13;21.30;;;15.30;;
1601;SDS011;794;48.592;9.634;2023-03-01T01:39:39;25.37;;;15.50;;
1601;SDS011;794;48.592;9.634;2023-03-01T01:42:08;19.30;;;14.00;;
1601;SDS011;794;48.592;9.634;2023-03-01T01:44:42;26.07;;;16.37;;
1601;SDS011;794;48.592;9.634;2023-03-01T01:47:14;20.43;;;14.43;;
1601;SDS011;794;48.592;9.634;2023-03-01T01:49:44;18.83;;;14.03;;
1601;SDS011;794;48.592;9.634;2023-03-01T01:52:16;21.60;;;13.70;;
1601;SDS011;794;48.592;9.634;2023-03-01T01:54:47;16.33;;;12.90;;
1601;SDS011;794;48.592;9.634;2023-03-01T01:57:18;20.47;;;13.97;;
1601;SDS011;794;48.592;9.634;2023-03-01T01:59:48;21.20;;;15.13;;
1601;SDS011;794;48.592;9.634;2023-03-01T02:02:20;20.50;;;14.83;;
1601;SDS011;794;48.592;9.634;2023-03-01T02:04:47;20.70;;;14.87;;
1601;SDS011;794;48.592;9.634;2023-03-01T02:07:17;22.20;;;16.17;;
1601;SDS011;794;48.592;9.634;2023-03-01T02:09:46;23.40;;;14.77;;
1601;SDS011;794;48.592;9.634;2023-03-01T02:12:14;24.87;;;15.63;;
1601;SDS011;794;48.592;9.634;2023-03-01T02:14:44;20.20;;;15.17;;
1601;SDS011;794;48.592;9.634;2023-03-01T02:17:12;21.23;;;15.93;;
1601;SDS011;794;48.592;9.634;2023-03-01T02:19:47;22.07;;;14.73;;
1601;SDS011;794;48.592;9.634;2023-03-01T02:22:23;23.10;;;15.80;;
1601;SDS011;794;48.592;9.634;2023-03-01T02:24:59;22.30;;;16.37;;
1601;SDS011;794;48.592;9.634;2023-03-01T02:27:40;24.00;;;14.80;;
1601;SDS011;794;48.592;9.634;2023-03-01T02:30:16;24.73;;;16.70;;
1601;SDS011;794;48.592;9.634;2023-03-01T02:32:44;20.80;;;15.50;;
1601;SDS011;794;48.592;9.634;2023-03-01T02:35:12;25.47;;;14.83;;
1601;SDS011;794;48.592;9.634;2023-03-01T02:37:42;20.63;;;15.37;;
1601;SDS011;794;48.592;9.634;2023-03-01T02:40:11;23.77;;;15.73;;
1601;SDS011;794;48.592;9.634;2023-03-01T02:42:43;22.30;;;15.67;;
1601;SDS011;794;48.592;9.634;2023-03-01T02:45:17;26.77;;;17.57;;
1601;SDS011;794;48.592;9.634;2023-03-01T02:47:44;23.93;;;16.93;;
1601;SDS011;794;48.592;9.634;2023-03-01T02:50:14;22.97;;;15.67;;
1601;SDS011;794;48.592;9.634;2023-03-01T02:52:52;23.03;;;17.53;;
1601;SDS011;794;48.592;9.634;2023-03-01T02:55:23;29.57;;;18.90;;
1601;SDS011;794;48.592;9.634;2023-03-01T02:57:50;27.97;;;16.87;;
1601;SDS011;794;48.592;9.634;2023-03-01T03:02:51;22.60;;;15.90;;
1601;SDS011;794;48.592;9.634;2023-03-01T03:05:20;24.30;;;16.73;;
1601;SDS011;794;48.592;9.634;2023-03-01T03:07:49;24.07;;;16.47;;
1601;SDS011;794;48.592;9.634;2023-03-01T03:10:18;21.77;;;14.50;;
1601;SDS011;794;48.592;9.634;2023-03-01T03:12:48;23.00;;;15.37;;
1601;SDS011;794;48.592;9.634;2023-03-01T03:15:15;24.47;;;17.20;;
1601;SDS011;794;48.592;9.634;2023-03-01T03:17:44;19.97;;;14.33;;
1601;SDS011;794;48.592;9.634;2023-03-01T03:20:11;21.57;;;16.20;;
1601;SDS011;794;48.592;9.634;2023-03-01T03:22:43;23.13;;;15.10;;
1601;SDS011;794;48.592;9.634;2023-03-01T03:25:11;22.43;;;16.33;;
1601;SDS011;794;48.592;9.634;2023-03-01T03:27:39;25.13;;;16.13;;
1601;SDS011;794;48.592;9.634;2023-03-01T03:30:10;27.43;;;17.87;;
1601;SDS011;794;48.592;9.634;2023-03-01T03:32:39;25.20;;;17.33;;
1601;SDS011;794;48.592;9.634;2023-03-01T03:35:09;23.27;;;15.73;;
1601;SDS011;794;48.592;9.634;2023-03-01T03:37:36;17.67;;;13.53;;
1601;SDS011;794;48.592;9.634;2023-03-01T03:40:21;24.90;;;16.00;;
1601;SDS011;794;48.592;9.634;2023-03-01T03:42:48;19.70;;;13.20;;
1601;SDS011;794;48.592;9.634;2023-03-01T03:45:15;23.33;;;16.00;;
1601;SDS011;794;48.592;9.634;2023-03-01T03:47:42;25.87;;;15.57;;
1601;SDS011;794;48.592;9.634;2023-03-01T03:50:12;18.20;;;13.63;;
1601;SDS011;794;48.592;9.634;2023-03-01T03:52:40;19.03;;;13.57;;
1601;SDS011;794;48.592;9.634;2023-03-01T03:55:08;29.37;;;17.93;;
1601;SDS011;794;48.592;9.634;2023-03-01T03:57:36;23.27;;;16.50;;
1601;SDS011;794;48.592;9.634;2023-03-01T04:00:04;22.27;;;16.93;;
1601;SDS011;794;48.592;9.634;2023-03-01T04:02:37;23.00;;;15.93;;
1601;SDS011;794;48.592;9.634;2023-03-01T04:05:05;23.17;;;17.00;;
1601;SDS011;794;48.592;9.634;2023-03-01T04:07:34;26.57;;;15.73;;
1601;SDS011;794;48.592;9.634;2023-03-01T04:10:01;20.57;;;15.20;;
1601;SDS011;794;48.592;9.634;2023-03-01T04:12:29;22.00;;;15.37;;
1601;SDS011;794;48.592;9.634;2023-03-01T04:14:59;26.37;;;14.90;;
1601;SDS011;794;48.592;9.634;2023-03-01T04:17:26;22.90;;;15.50;;
1601;SDS011;794;48.592;9.634;2023-03-01T04:19:53;19.40;;;15.07;;
1601;SDS011;794;48.592;9.634;2023-03-01T04:22:20;19.10;;;15.00;;
1601;SDS011;794;48.592;9.634;2023-03-01T04:24:48;21.70;;;16.70;;
1601;SDS011;794;48.592;9.634;2023-03-01T04:27:15;21.67;;;14.23;;
1601;SDS011;794;48.592;9.634;2023-03-01T04:29:42;22.07;;;14.90;;
1601;SDS011;794;48.592;9.634;2023-03-01T04:32:08;21.13;;;15.67;;
1601;SDS011;794;48.592;9.634;2023-03-01T04:34:35;19.73;;;15.20;;
1601;SDS011;794;48.592;9.634;2023-03-01T04:37:02;20.33;;;17.07;;
1601;SDS011;794;48.592;9.634;2023-03-01T04:39:29;24.00;;;16.93;;
1601;SDS011;794;48.592;9.634;2023-03-01T04:41:59;22.70;;;15.13;;
1601;SDS011;794;48.592;9.634;2023-03-01T04:44:26;20.80;;;15.17;;
1601;SDS011;794;48.592;9.634;2023-03-01T04:46:52;21.07;;;15.30;;
1601;SDS011;794;48.592;9.634;2023-03-01T04:49:19;24.20;;;16.87;;
1601;SDS011;794;48.592;9.634;2023-03-01T04:51:46;21.10;;;16.67;;
1601;SDS011;794;48.592;9.634;2023-03-01T04:54:13;20.17;;;15.47;;
1601;SDS011;794;48.592;9.634;2023-03-01T04:56:41;27.53;;;15.40;;
1601;SDS011;794;48.592;9.634;2023-03-01T04:59:09;25.00;;;15.90;;
1601;SDS011;794;48.592;9.634;2023-03-01T05:01:38;22.63;;;15.00;;
1601;SDS011;794;48.592;9.634;2023-03-01T05:04:07;27.00;;;15.07;;
1601;SDS011;794;48.592;9.634;2023-03-01T05:06:38;22.00;;;15.17;;
1601;SDS011;794;48.592;9.634;2023-03-01T05:09:05;21.63;;;14.87;;
1601;SDS011;794;48.592;9.634;2023-03-01T05:11:32;20.43;;;14.70;;
1601;SDS011;794;48.592;9.634;2023-03-01T05:14:00;25.47;;;16.60;;
1601;SDS011;794;48.592;9.634;2023-03-01T05:16:29;21.03;;;15.50;;
1601;SDS011;794;48.592;9.634;2023-03-01T05:18:57;24.13;;;14.70;;
1601;SDS011;794;48.592;9.634;2023-03-01T05:21:25;25.60;;;15.37;;
1601;SDS011;794;48.592;9.634;2023-03-01T05:23:52;24.00;;;15.93;;
1601;SDS011;794;48.592;9.634;2023-03-01T05:26:20;24.83;;;15.67;;
1601;SDS011;794;48.592;9.634;2023-03-01T05:28:52;23.17;;;15.40;;
1601;SDS011;794;48.592;9.634;2023-03-01T05:31:23;22.20;;;16.00;;
1601;SDS011;794;48.592;9.634;2023-03-01T05:33:51;28.03;;;14.73;;
1601;SDS011;794;48.592;9.634;2023-03-01T05:36:18;23.70;;;14.57;;
1601;SDS011;794;48.592;9.634;2023-03-01T05:38:45;19.40;;;15.47;;
1601;SDS011;794;48.592;9.634;2023-03-01T05:41:13;26.70;;;14.90;;
1601;SDS011;794;48.592;9.634;2023-03-01T05:43:41;23.47;;;16.47;;
1601;SDS011;794;48.592;9.634;2023-03-01T05:46:09;26.27;;;18.00;;
1601;SDS011;794;48.592;9.634;2023-03-01T05:48:38;24.07;;;17.17;;
1601;SDS011;794;48.592;9.634;2023-03-01T05:51:06;23.20;;;17.57;;
1601;SDS011;794;48.592;9.634;2023-03-01T05:53:33;25.80;;;18.30;;
1601;SDS011;794;48.592;9.634;2023-03-01T05:56:02;24.13;;;15.30;;
1601;SDS011;794;48.592;9.634;2023-03-01T05:58:29;25.83;;;16.90;;
1601;SDS011;794;48.592;9.634;2023-03-01T06:00:56;27.47;;;16.80;;
1601;SDS011;794;48.592;9.634;2023-03-01T06:03:23;23.90;;;16.40;;
1601;SDS011;794;48.592;9.634;2023-03-01T06:05:55;21.70;;;16.43;;
1601;SDS011;794;48.592;9.634;2023-03-01T06:08:23;21.03;;;16.93;;
1601;SDS011;794;48.592;9.634;2023-03-01T06:10:52;25.47;;;16.80;;
1601;SDS011;794;48.592;9.634;2023-03-01T06:13:19;19.73;;;14.80;;
1601;SDS011;794;48.592;9.634;2023-03-01T06:15:45;22.50;;;14.73;;
1601;SDS011;794;48.592;9.634;2023-03-01T06:18:12;25.87;;;17.00;;
1601;SDS011;794;48.592;9.634;2023-03-01T06:20:39;24.07;;;16.13;;
1601;SDS011;794;48.592;9.634;2023-03-01T06:23:06;21.40;;;16.50;;
1601;SDS011;794;48.592;9.634;2023-03-01T06:25:34;25.63;;;16.60;;
1601;SDS011;794;48.592;9.634;2023-03-01T06:28:01;23.43;;;15.40;;
1601;SDS011;794;48.592;9.634;2023-03-01T06:30:29;21.80;;;14.77;;
1601;SDS011;794;48.592;9.634;2023-03-01T06:32:56;24.20;;;16.70;;
1601;SDS011;794;48.592;9.634;2023-03-01T06:35:28;21.70;;;15.47;;
1601;SDS011;794;48.592;9.634;2023-03-01T06:37:56;25.13;;;17.23;;
1601;SDS011;794;48.592;9.634;2023-03-01T06:40:23;35.40;;;23.83;;
1601;SDS011;794;48.592;9.634;2023-03-01T06:42:52;36.23;;;23.50;;
1601;SDS011;794;48.592;9.634;2023-03-01T06:45:19;27.20;;;19.00;;
1601;SDS011;794;48.592;9.634;2023-03-01T06:47:47;46.20;;;33.13;;
1601;SDS011;794;48.592;9.634;2023-03-01T06:50:14;50.67;;;33.70;;
1601;SDS011;794;48.592;9.634;2023-03-01T06:52:41;59.93;;;34.50;;
1601;SDS011;794;48.592;9.634;2023-03-01T06:55:09;33.30;;;21.77;;
1601;SDS011;794;48.592;9.634;2023-03-01T06:57:37;23.87;;;16.33;;
1601;SDS011;794;48.592;9.634;2023-03-01T07:00:06;31.53;;;25.07;;
1601;SDS011;794;48.592;9.634;2023-03-01T07:02:34;32.17;;;21.67;;
1601;SDS011;794;48.592;9.634;2023-03-01T07:05:01;31.37;;;20.23;;
1601;SDS011;794;48.592;9.634;2023-03-01T07:07:28;26.70;;;18.13;;
1601;SDS011;794;48.592;9.634;2023-03-01T07:09:55;26.23;;;16.07;;
1601;SDS011;794;48.592;9.634;2023-03-01T07:12:22;21.30;;;16.07;;
1601;SDS011;794;48.592;9.634;2023-03-01T07:14:49;25.13;;;17.23;;
1601;SDS011;794;48.592;9.634;2023-03-01T07:17:17;27.57;;;15.63;;
1601;SDS011;794;48.592;9.634;2023-03-01T07:19:44;22.40;;;15.77;;
1601;SDS011;794;48.592;9.634;2023-03-01T07:22:11;25.17;;;16.70;;
1601;SDS011;794;48.592;9.634;2023-03-01T07:24:38;22.50;;;15.30;;
1601;SDS011;794;48.592;9.634;2023-03-01T07:27:05;26.73;;;19.40;;
1601;SDS011;794;48.592;9.634;2023-03-01T07:29:32;20.97;;;16.77;;
1601;SDS011;794;48.592;9.634;2023-03-01T07:32:01;23.40;;;15.43;;
1601;SDS011;794;48.592;9.634;2023-03-01T07:34:29;28.03;;;19.10;;
1601;SDS011;794;48.592;9.634;2023-03-01T07:36:56;21.97;;;15.67;;
1601;SDS011;794;48.592;9.634;2023-03-01T07:39:23;25.27;;;15.10;;
1601;SDS011;794;48.592;9.634;2023-03-01T07:41:50;25.80;;;18.00;;
1601;SDS011;794;48.592;9.634;2023-03-01T07:44:17;25.87;;;16.57;;
1601;SDS011;794;48.592;9.634;2023-03-01T07:46:45;24.20;;;16.60;;
1601;SDS011;794;48.592;9.634;2023-03-01T07:49:13;23.53;;;16.97;;
1601;SDS011;794;48.592;9.634;2023-03-01T07:51:41;25.30;;;18.77;;
1601;SDS011;794;48.592;9.634;2023-03-01T07:54:09;23.60;;;16.80;;
1601;SDS011;794;48.592;9.634;2023-03-01T07:56:36;25.43;;;16.07;;
1601;SDS011;794;48.592;9.634;2023-03-01T07:59:03;22.30;;;16.70;;
1601;SDS011;794;48.592;9.634;2023-03-01T08:01:30;20.67;;;13.87;;
1601;SDS011;794;48.592;9.634;2023-03-01T08:03:57;20.63;;;16.30;;
1601;SDS011;794;48.592;9.634;2023-03-01T08:06:24;20.40;;;15.73;;
1601;SDS011;794;48.592;9.634;2023-03-01T08:08:52;21.10;;;15.70;;
1601;SDS011;794;48.592;9.634;2023-03-01T08:11:20;17.43;;;14.83;;
1601;SDS011;794;48.592;9.634;2023-03-01T08:13:48;25.97;;;18.93;;
1601;SDS011;794;48.592;9.634;2023-03-01T08:16:15;23.40;;;18.47;;
1601;SDS011;794;48.592;9.634;2023-03-01T08:18:42;20.77;;;14.60;;
1601;SDS011;794;48.592;9.634;2023-03-01T08:21:10;22.70;;;20.33;;
1601;SDS011;794;48.592;9.634;2023-03-01T08:23:39;22.17;;;15.60;;
1601;SDS011;794;48.592;9.634;2023-03-01T08:26:09;19.13;;;15.63;;
1601;SDS011;794;48.592;9.634;2023-03-01T08:28:38;20.93;;;15.47;;
1601;SDS011;794;48.592;9.634;2023-03-01T08:31:13;18.47;;;15.30;;
1601;SDS011;794;48.592;9.634;2023-03-01T08:33:41;19.53;;;15.00;;
1601;SDS011;794;48.592;9.634;2023-03-01T08:36:11;20.37;;;16.80;;
1601;SDS011;794;48.592;9.634;2023-03-01T08:38:41;23.00;;;16.17;;
1601;SDS011;794;48.592;9.634;2023-03-01T08:41:12;19.73;;;14.03;;
1601;SDS011;794;48.592;9.634;2023-03-01T08:43:39;17.07;;;13.57;;
1601;SDS011;794;48.592;9.634;2023-03-01T08:46:09;22.87;;;16.57;;
1601;SDS011;794;48.592;9.634;2023-03-01T08:48:40;22.80;;;15.60;;
1601;SDS011;794;48.592;9.634;2023-03-01T08:51:08;23.47;;;16.60;;
1601;SDS011;794;48.592;9.634;2023-03-01T08:53:37;23.03;;;16.97;;
1601;SDS011;794;48.592;9.634;2023-03-01T08:56:07;18.43;;;14.27;;
1601;SDS011;794;48.592;9.634;2023-03-01T08:58:36;17.97;;;14.43;;
1601;SDS011;794;48.592;9.634;2023-03-01T09:01:06;19.87;;;15.40;;
1601;SDS011;794;48.592;9.634;2023-03-01T09:03:33;20.40;;;16.30;;
1601;SDS011;794;48.592;9.634;2023-03-01T09:06:01;21.50;;;16.13;;
1601;SDS011;794;48.592;9.634;2023-03-01T09:08:29;22.43;;;14.93;;
1601;SDS011;794;48.592;9.634;2023-03-01T09:10:56;25.13;;;17.17;;
1601;SDS011;794;48.592;9.634;2023-03-01T09:13:23;21.77;;;16.60;;
1601;SDS011;794;48.592;9.634;2023-03-01T09:15:52;22.40;;;15.37;;
1601;SDS011;794;48.592;9.634;2023-03-01T09:18:19;17.37;;;15.37;;
1601;SDS011;794;48.592;9.634;2023-03-01T09:20:45;19.60;;;16.30;;
1601;SDS011;794;48.592;9.634;2023-03-01T09:23:12;19.93;;;16.77;;
1601;SDS011;794;48.592;9.634;2023-03-01T09:25:39;21.70;;;16.73;;
1601;SDS011;794;48.592;9.634;2023-03-01T09:28:06;20.90;;;17.03;;
1601;SDS011;794;48.592;9.634;2023-03-01T09:30:33;20.20;;;16.70;;
1601;SDS011;794;48.592;9.634;2023-03-01T09:33:01;23.93;;;17.70;;
1601;SDS011;794;48.592;9.634;2023-03-01T09:35:28;21.53;;;15.00;;
1601;SDS011;794;48.592;9.634;2023-03-01T09:37:56;22.80;;;17.70;;
1601;SDS011;794;48.592;9.634;2023-03-01T09:40:23;19.20;;;16.30;;
1601;SDS011;794;48.592;9.634;2023-03-01T09:42:54;20.87;;;15.37;;
1601;SDS011;794;48.592;9.634;2023-03-01T09:45:26;17.33;;;15.23;;
1601;SDS011;794;48.592;9.634;2023-03-01T09:47:58;20.20;;;15.57;;
1601;SDS011;794;48.592;9.634;2023-03-01T09:50:32;21.43;;;15.43;;
1601;SDS011;794;48.592;9.634;2023-03-01T09:53:02;24.87;;;18.33;;
1601;SDS011;794;48.592;9.634;2023-03-01T09:55:33;22.17;;;15.70;;
1601;SDS011;794;48.592;9.634;2023-03-01T09:58:06;18.00;;;14.73;;
1601;SDS011;794;48.592;9.634;2023-03-01T10:00:53;22.53;;;16.00;;
1601;SDS011;794;48.592;9.634;2023-03-01T10:03:24;22.23;;;15.00;;
1601;SDS011;794;48.592;9.634;2023-03-01T10:05:56;23.07;;;18.27;;
1601;SDS011;794;48.592;9.634;2023-03-01T10:08:27;27.33;;;18.70;;
1601;SDS011;794;48.592;9.634;2023-03-01T10:11:04;32.20;;;22.00;;
1601;SDS011;794;48.592;9.634;2023-03-01T10:13:42;21.83;;;15.77;;
1601;SDS011;794;48.592;9.634;2023-03-01T10:16:19;23.40;;;16.47;;
1601;SDS011;794;48.592;9.634;2023-03-01T10:18:53;22.17;;;15.23;;
1601;SDS011;794;48.592;9.634;2023-03-01T10:21:25;23.03;;;15.90;;
1601;SDS011;794;48.592;9.634;2023-03-01T10:24:04;19.63;;;13.80;;
1601;SDS011;794;48.592;9.634;2023-03-01T10:26:39;16.20;;;13.20;;
1601;SDS011;794;48.592;9.634;2023-03-01T10:29:14;14.83;;;10.50;;
1601;SDS011;794;48.592;9.634;2023-03-01T10:31:42;24.50;;;16.73;;
1601;SDS011;794;48.592;9.634;2023-03-01T10:34:13;19.10;;;14.50;;
1601;SDS011;794;48.592;9.634;2023-03-01T10:36:42;18.67;;;14.83;;
1601;SDS011;794;48.592;9.634;2023-03-01T10:39:14;18.57;;;15.40;;
1601;SDS011;794;48.592;9.634;2023-03-01T10:41:53;22.37;;;15.60;;
1601;SDS011;794;48.592;9.634;2023-03-01T10:44:35;22.93;;;16.37;;
1601;SDS011;794;48.592;9.634;2023-03-01T10:47:11;17.77;;;14.50;;
1601;SDS011;794;48.592;9.634;2023-03-01T10:49:51;18.50;;;12.77;;
1601;SDS011;794;48.592;9.634;2023-03-01T10:52:30;16.33;;;13.50;;
1601;SDS011;794;48.592;9.634;2023-03-01T10:55:00;19.37;;;14.40;;
1601;SDS011;794;48.592;9.634;2023-03-01T10:57:32;20.27;;;15.60;;
1601;SDS011;794;48.592;9.634;2023-03-01T11:00:22;20.20;;;13.00;;
1601;SDS011;794;48.592;9.634;2023-03-01T11:03:01;21.33;;;15.00;;
1601;SDS011;794;48.592;9.634;2023-03-01T11:05:37;17.50;;;13.03;;
1601;SDS011;794;48.592;9.634;2023-03-01T11:08:28;18.40;;;14.13;;
1601;SDS011;794;48.592;9.634;2023-03-01T11:11:13;21.03;;;14.97;;
1601;SDS011;794;48.592;9.634;2023-03-01T11:16:34;17.60;;;12.90;;
1601;SDS011;794;48.592;9.634;2023-03-01T11:19:19;17.60;;;12.67;;
1601;SDS011;794;48.592;9.634;2023-03-01T11:21:52;19.83;;;13.33;;
1601;SDS011;794;48.592;9.634;2023-03-01T11:24:24;18.03;;;14.60;;
1601;SDS011;794;48.592;9.634;2023-03-01T11:26:56;17.90;;;13.77;;
1601;SDS011;794;48.592;9.634;2023-03-01T11:29:27;18.93;;;13.47;;
1601;SDS011;794;48.592;9.634;2023-03-01T11:31:59;20.67;;;13.70;;
1601;SDS011;794;48.592;9.634;2023-03-01T11:34:38;15.23;;;12.73;;
1601;SDS011;794;48.592;9.634;2023-03-01T11:37:16;20.90;;;14.40;;
1601;SDS011;794;48.592;9.634;2023-03-01T11:39:52;15.80;;;12.87;;
1601;SDS011;794;48.592;9.634;2023-03-01T11:42:26;16.17;;;13.17;;
1601;SDS011;794;48.592;9.634;2023-03-01T11:44:59;19.37;;;12.93;;
1601;SDS011;794;48.592;9.634;2023-03-01T11:47:33;19.30;;;14.27;;
1601;SDS011;794;48.592;9.634;2023-03-01T11:50:19;18.30;;;13.53;;
1601;SDS011;794;48.592;9.634;2023-03-01T11:52:57;23.60;;;16.50;;
1601;SDS011;794;48.592;9.634;2023-03-01T11:55:45;33.30;;;22.23;;
1601;SDS011;794;48.592;9.634;2023-03-01T11:58:23;15.77;;;12.80;;
1601;SDS011;794;48.592;9.634;2023-03-01T12:06:57;17.93;;;14.73;;
1601;SDS011;794;48.592;9.634;2023-03-01T12:09:33;17.47;;;13.20;;
1601;SDS011;794;48.592;9.634;2023-03-01T12:12:12;19.27;;;14.20;;
1601;SDS011;794;48.592;9.634;2023-03-01T12:15:01;21.93;;;13.90;;
1601;SDS011;794;48.592;9.634;2023-03-01T12:17:54;20.67;;;13.10;;
1601;SDS011;794;48.592;9.634;2023-03-01T12:20:35;17.97;;;14.23;;
1601;SDS011;794;48.592;9.634;2023-03-01T12:23:17;17.00;;;12.97;;
1601;SDS011;794;48.592;9.634;2023-03-01T12:25:58;14.93;;;13.17;;
1601;SDS011;794;48.592;9.634;2023-03-01T12:28:40;18.50;;;12.87;;
1601;SDS011;794;48.592;9.634;2023-03-01T12:37:42;17.17;;;12.27;;
1601;SDS011;794;48.592;9.634;2023-03-01T12:40:33;15.87;;;12.73;;
1601;SDS011;794;48.592;9.634;2023-03-01T12:43:17;17.83;;;13.57;;
1601;SDS011;794;48.592;9.634;2023-03-01T12:46:03;16.40;;;12.60;;
1601;SDS011;794;48.592;9.634;2023-03-01T12:48:43;19.43;;;14.37;;
1601;SDS011;794;48.592;9.634;2023-03-01T12:51:20;21.27;;;13.80;;
1601;SDS011;794;48.592;9.634;2023-03-01T12:53:51;18.93;;;12.30;;
1601;SDS011;794;48.592;9.634;2023-03-01T12:56:21;19.70;;;16.67;;
1601;SDS011;794;48.592;9.634;2023-03-01T12:58:54;15.90;;;12.93;;
1601;SDS011;794;48.592;9.634;2023-03-01T13:01:31;18.70;;;13.30;;
1601;SDS011;794;48.592;9.634;2023-03-01T13:07:00;20.03;;;15.40;;
1601;SDS011;794;48.592;9.634;2023-03-01T13:09:43;21.20;;;15.20;;
1601;SDS011;794;48.592;9.634;2023-03-01T13:15:33;21.97;;;14.27;;
1601;SDS011;794;48.592;9.634;2023-03-01T13:18:02;14.30;;;11.57;;
1601;SDS011;794;48.592;9.634;2023-03-01T13:20:52;16.00;;;13.63;;
1601;SDS011;794;48.592;9.634;2023-03-01T13:23:26;16.20;;;14.33;;
1601;SDS011;794;48.592;9.634;2023-03-01T13:26:01;15.03;;;11.97;;
1601;SDS011;794;48.592;9.634;2023-03-01T13:34:48;17.43;;;11.67;;
1601;SDS011;794;48.592;9.634;2023-03-01T13:37:29;14.53;;;11.70;;
1601;SDS011;794;48.592;9.634;2023-03-01T13:39:59;13.40;;;11.67;;
1601;SDS011;794;48.592;9.634;2023-03-01T13:42:39;15.70;;;11.97;;
1601;SDS011;794;48.592;9.634;2023-03-01T13:48:03;16.00;;;11.70;;
1601;SDS011;794;48.592;9.634;2023-03-01T13:50:46;15.80;;;11.53;;
1601;SDS011;794;48.592;9.634;2023-03-01T13:53:17;17.00;;;10.70;;
1601;SDS011;794;48.592;9.634;2023-03-01T13:55:46;17.37;;;10.93;;
1601;SDS011;794;48.592;9.634;2023-03-01T13:58:16;18.70;;;14.90;;
1601;SDS011;794;48.592;9.634;2023-03-01T14:00:54;13.40;;;11.70;;
1601;SDS011;794;48.592;9.634;2023-03-01T14:03:23;21.20;;;12.97;;
1601;SDS011;794;48.592;9.634;2023-03-01T14:05:57;16.00;;;10.13;;
1601;SDS011;794;48.592;9.634;2023-03-01T14:08:27;17.07;;;12.80;;
1601;SDS011;794;48.592;9.634;2023-03-01T14:11:08;14.83;;;11.63;;
1601;SDS011;794;48.592;9.634;2023-03-01T14:14:09;13.80;;;11.03;;
1601;SDS011;794;48.592;9.634;2023-03-01T14:16:49;22.43;;;12.17;;
1601;SDS011;794;48.592;9.634;2023-03-01T14:19:27;14.57;;;10.73;;
1601;SDS011;794;48.592;9.634;2023-03-01T14:21:58;17.33;;;12.47;;
1601;SDS011;794;48.592;9.634;2023-03-01T14:24:39;12.63;;;11.30;;
1601;SDS011;794;48.592;9.634;2023-03-01T14:27:12;15.63;;;12.67;;
1601;SDS011;794;48.592;9.634;2023-03-01T14:29:40;15.20;;;11.47;;
1601;SDS011;794;48.592;9.634;2023-03-01T14:32:11;14.80;;;11.80;;
1601;SDS011;794;48.592;9.634;2023-03-01T14:34:46;15.53;;;12.60;;
1601;SDS011;794;48.592;9.634;2023-03-01T14:37:21;15.40;;;12.30;;
1601;SDS011;794;48.592;9.634;2023-03-01T14:39:51;14.53;;;10.97;;
1601;SDS011;794;48.592;9.634;2023-03-01T14:42:19;22.90;;;13.00;;
1601;SDS011;794;48.592;9.634;2023-03-01T14:44:48;16.97;;;12.00;;
1601;SDS011;794;48.592;9.634;2023-03-01T14:47:20;13.00;;;11.57;;
1601;SDS011;794;48.592;9.634;2023-03-01T14:49:56;14.23;;;11.70;;
1601;SDS011;794;48.592;9.634;2023-03-01T14:52:25;17.17;;;13.50;;
1601;SDS011;794;48.592;9.634;2023-03-01T14:55:05;15.47;;;12.43;;
1601;SDS011;794;48.592;9.634;2023-03-01T14:57:42;18.40;;;13.40;;
1601;SDS011;794;48.592;9.634;2023-03-01T15:00:10;18.50;;;14.47;;
1601;SDS011;794;48.592;9.634;2023-03-01T15:02:44;20.33;;;13.53;;
1601;SDS011;794;48.592;9.634;2023-03-01T15:05:14;15.70;;;12.00;;
1601;SDS011;794;48.592;9.634;2023-03-01T15:07:52;25.20;;;17.97;;
1601;SDS011;794;48.592;9.634;2023-03-01T15:10:20;18.60;;;13.43;;
1601;SDS011;794;48.592;9.634;2023-03-01T15:12:48;18.27;;;12.93;;
1601;SDS011;794;48.592;9.634;2023-03-01T15:15:34;14.60;;;11.53;;
1601;SDS011;794;48.592;9.634;2023-03-01T15:18:05;16.70;;;12.53;;
1601;SDS011;794;48.592;9.634;2023-03-01T15:20:42;19.50;;;11.93;;
1601;SDS011;794;48.592;9.634;2023-03-01T15:23:16;19.40;;;12.70;;
1601;SDS011;794;48.592;9.634;2023-03-01T15:25:46;16.57;;;12.27;;
1601;SDS011;794;48.592;9.634;2023-03-01T15:28:22;16.23;;;12.97;;
1601;SDS011;794;48.592;9.634;2023-03-01T15:30:54;15.70;;;11.10;;
1601;SDS011;794;48.592;9.634;2023-03-01T15:33:31;14.40;;;12.37;;
1601;SDS011;794;48.592;9.634;2023-03-01T15:36:01;18.30;;;12.50;;
1601;SDS011;794;48.592;9.634;2023-03-01T15:38:52;17.03;;;12.10;;
1601;SDS011;794;48.592;9.634;2023-03-01T15:41:24;16.77;;;12.37;;
1601;SDS011;794;48.592;9.634;2023-03-01T15:43:52;15.00;;;12.50;;
1601;SDS011;794;48.592;9.634;2023-03-01T15:46:24;13.73;;;11.23;;
1601;SDS011;794;48.592;9.634;2023-03-01T15:48:54;18.90;;;12.73;;
1601;SDS011;794;48.592;9.634;2023-03-01T15:51:26;14.17;;;11.60;;
1601;SDS011;794;48.592;9.634;2023-03-01T15:53:57;17.40;;;13.10;;
1601;SDS011;794;48.592;9.634;2023-03-01T15:56:26;18.57;;;13.63;;